sensor_id;sensor_type;location;lat;lon;timestamp;pressure;altitude;pressure_sealevel;temperature;humidity
8294;BME280;4185;41.506;24.938;2023-03-31T00:00:25;93644.56;;;4.35;75.31
8294;BME280;4185;41.506;24.938;2023-03-31T00:02:52;93641.47;;;4.46;74.67
8294;BME280;4185;41.506;24.938;2023-03-31T00:05:20;93641.00;;;4.47;74.67
8294;BME280;4185;41.506;24.938;2023-03-31T00:07:52;93631.75;;;4.48;75.74
8294;BME280;4185;41.506;24.938;2023-03-31T00:10:21;93620.22;;;4.39;75.13
8294;BME280;4185;41.506;24.938;2023-03-31T00:12:48;93608.56;;;4.33;75.96
8294;BME280;4185;41.506;24.938;2023-03-31T00:15:14;93612.59;;;4.37;75.87
8294;BME280;4185;41.506;24.938;2023-03-31T00:17:41;93609.59;;;4.35;76.09
8294;BME280;4185;41.506;24.938;2023-03-31T00:20:08;93614.09;;;4.38;76.41
8294;BME280;4185;41.506;24.938;2023-03-31T00:22:37;93612.00;;;4.42;75.98
8294;BME280;4185;41.506;24.938;2023-03-31T00:25:07;93617.13;;;4.49;74.90
8294;BME280;4185;41.506;24.938;2023-03-31T00:27:36;93601.56;;;4.53;74.98
8294;BME280;4185;41.506;24.938;2023-03-31T00:30:04;93602.19;;;4.57;75.25
8294;BME280;4185;41.506;24.938;2023-03-31T00:32:31;93597.13;;;4.59;75.87
8294;BME280;4185;41.506;24.938;2023-03-31T00:34:58;93588.56;;;4.52;75.59
8294;BME280;4185;41.506;24.938;2023-03-31T00:37:27;93589.91;;;4.47;75.75
8294;BME280;4185;41.506;24.938;2023-03-31T00:39:54;93581.09;;;4.47;75.89
8294;BME280;4185;41.506;24.938;2023-03-31T00:42:21;93581.72;;;4.51;76.20
8294;BME280;4185;41.506;24.938;2023-03-31T00:45:22;93572.78;;;4.63;75.07
8294;BME280;4185;41.506;24.938;2023-03-31T00:47:52;93573.09;;;4.65;74.61
8294;BME280;4185;41.506;24.938;2023-03-31T00:50:22;93569.50;;;4.68;74.56
8294;BME280;4185;41.506;24.938;2023-03-31T00:52:55;93563.50;;;4.64;74.77
8294;BME280;4185;41.506;24.938;2023-03-31T00:55:26;93564.72;;;4.63;75.05
8294;BME280;4185;41.506;24.938;2023-03-31T00:57:56;93557.69;;;4.56;74.75
8294;BME280;4185;41.506;24.938;2023-03-31T01:00:27;93566.03;;;4.49;75.07
8294;BME280;4185;41.506;24.938;2023-03-31T01:02:58;93564.66;;;4.45;75.78
8294;BME280;4185;41.506;24.938;2023-03-31T01:05:28;93556.13;;;4.37;76.28
8294;BME280;4185;41.506;24.938;2023-03-31T01:07:58;93561.69;;;4.43;76.71
8294;BME280;4185;41.506;24.938;2023-03-31T01:10:27;93546.00;;;4.41;76.25
8294;BME280;4185;41.506;24.938;2023-03-31T01:12:56;93550.47;;;4.44;76.29
8294;BME280;4185;41.506;24.938;2023-03-31T01:15:23;93555.22;;;4.40;76.72
8294;BME280;4185;41.506;24.938;2023-03-31T01:17:52;93551.78;;;4.31;77.42
8294;BME280;4185;41.506;24.938;2023-03-31T01:20:24;93553.97;;;4.23;76.65
8294;BME280;4185;41.506;24.938;2023-03-31T01:23:24;93554.44;;;4.22;77.34
8294;BME280;4185;41.506;24.938;2023-03-31T01:26:28;93555.78;;;4.17;77.28
8294;BME280;4185;41.506;24.938;2023-03-31T01:29:08;93552.78;;;4.15;78.32
8294;BME280;4185;41.506;24.938;2023-03-31T01:35:15;93539.97;;;4.28;77.43
8294;BME280;4185;41.506;24.938;2023-03-31T01:41:07;93537.88;;;4.32;76.35
8294;BME280;4185;41.506;24.938;2023-03-31T01:43:43;93532.97;;;4.31;76.50
8294;BME280;4185;41.506;24.938;2023-03-31T01:46:20;93532.03;;;4.25;76.67
8294;BME280;4185;41.506;24.938;2023-03-31T01:48:58;93531.31;;;4.24;76.70
8294;BME280;4185;41.506;24.938;2023-03-31T01:51:32;93520.25;;;4.22;76.60
8294;BME280;4185;41.506;24.938;2023-03-31T01:54:08;93513.66;;;4.14;77.24
8294;BME280;4185;41.506;24.938;2023-03-31T01:56:42;93528.28;;;4.13;77.03
8294;BME280;4185;41.506;24.938;2023-03-31T01:59:14;93521.41;;;4.12;77.52
8294;BME280;4185;41.506;24.938;2023-03-31T02:01:48;93524.22;;;4.09;77.37
8294;BME280;4185;41.506;24.938;2023-03-31T02:04:18;93516.25;;;3.96;78.19
8294;BME280;4185;41.506;24.938;2023-03-31T02:06:50;93514.47;;;3.93;77.80
8294;BME280;4185;41.506;24.938;2023-03-31T02:09:23;93501.03;;;3.93;77.96
8294;BME280;4185;41.506;24.938;2023-03-31T02:11:53;93507.03;;;3.97;77.40
8294;BME280;4185;41.506;24.938;2023-03-31T02:14:23;93509.53;;;3.92;77.38
8294;BME280;4185;41.506;24.938;2023-03-31T02:16:54;93504.91;;;3.92;77.71
8294;BME280;4185;41.506;24.938;2023-03-31T02:19:26;93500.25;;;3.84;77.70
8294;BME280;4185;41.506;24.938;2023-03-31T02:21:55;93493.69;;;3.85;78.04
8294;BME280;4185;41.506;24.938;2023-03-31T02:24:24;93496.06;;;3.83;78.47
8294;BME280;4185;41.506;24.938;2023-03-31T02:26:58;93490.09;;;3.79;78.51
8294;BME280;4185;41.506;24.938;2023-03-31T02:29:29;93487.22;;;3.73;78.90
8294;BME280;4185;41.506;24.938;2023-03-31T02:31:59;93489.47;;;3.74;78.57
8294;BME280;4185;41.506;24.938;2023-03-31T02:34:28;93483.06;;;3.81;78.64
8294;BME280;4185;41.506;24.938;2023-03-31T02:36:55;93482.19;;;3.84;78.55
8294;BME280;4185;41.506;24.938;2023-03-31T02:39:25;93474.72;;;3.79;78.52
8294;BME280;4185;41.506;24.938;2023-03-31T02:41:58;93484.16;;;3.84;77.83
8294;BME280;4185;41.506;24.938;2023-03-31T02:44:30;93479.94;;;3.83;78.15
8294;BME280;4185;41.506;24.938;2023-03-31T02:46:57;93479.78;;;3.77;78.51
8294;BME280;4185;41.506;24.938;2023-03-31T02:49:24;93484.69;;;3.69;78.37
8294;BME280;4185;41.506;24.938;2023-03-31T02:52:04;93487.19;;;3.64;78.97
8294;BME280;4185;41.506;24.938;2023-03-31T02:54:46;93491.66;;;3.67;79.08
8294;BME280;4185;41.506;24.938;2023-03-31T02:57:33;93490.75;;;3.61;78.88
8294;BME280;4185;41.506;24.938;2023-03-31T03:00:07;93490.41;;;3.50;78.98
8294;BME280;4185;41.506;24.938;2023-03-31T03:02:48;93491.59;;;3.49;79.37
8294;BME280;4185;41.506;24.938;2023-03-31T03:05:21;93489.16;;;3.42;78.88
8294;BME280;4185;41.506;24.938;2023-03-31T03:07:57;93487.03;;;3.37;79.55
8294;BME280;4185;41.506;24.938;2023-03-31T03:10:34;93496.75;;;3.34;79.81
8294;BME280;4185;41.506;24.938;2023-03-31T03:13:08;93496.56;;;3.29;79.74
8294;BME280;4185;41.506;24.938;2023-03-31T03:15:44;93501.94;;;3.29;80.25
8294;BME280;4185;41.506;24.938;2023-03-31T03:18:13;93503.41;;;3.30;80.70
8294;BME280;4185;41.506;24.938;2023-03-31T03:20:41;93495.22;;;3.33;80.86
8294;BME280;4185;41.506;24.938;2023-03-31T03:23:12;93502.56;;;3.33;80.48
8294;BME280;4185;41.506;24.938;2023-03-31T03:25:40;93501.03;;;3.32;80.59
8294;BME280;4185;41.506;24.938;2023-03-31T03:28:08;93500.91;;;3.35;80.48
8294;BME280;4185;41.506;24.938;2023-03-31T03:30:35;93501.78;;;3.32;80.89
8294;BME280;4185;41.506;24.938;2023-03-31T03:33:02;93485.69;;;3.32;80.47
8294;BME280;4185;41.506;24.938;2023-03-31T03:35:30;93489.41;;;3.35;80.94
8294;BME280;4185;41.506;24.938;2023-03-31T03:37:57;93488.25;;;3.36;80.77
8294;BME280;4185;41.506;24.938;2023-03-31T03:40:24;93480.31;;;3.32;80.48
8294;BME280;4185;41.506;24.938;2023-03-31T03:42:51;93481.53;;;3.31;81.21
8294;BME280;4185;41.506;24.938;2023-03-31T03:45:19;93487.94;;;3.34;81.15
8294;BME280;4185;41.506;24.938;2023-03-31T03:47:46;93484.41;;;3.46;80.93
8294;BME280;4185;41.506;24.938;2023-03-31T03:50:13;93475.66;;;3.54;80.50
8294;BME280;4185;41.506;24.938;2023-03-31T03:52:39;93471.97;;;3.61;80.06
8294;BME280;4185;41.506;24.938;2023-03-31T03:55:07;93474.00;;;3.57;80.33
8294;BME280;4185;41.506;24.938;2023-03-31T03:57:34;93472.09;;;3.57;80.26
8294;BME280;4185;41.506;24.938;2023-03-31T04:00:00;93469.22;;;3.52;80.19
8294;BME280;4185;41.506;24.938;2023-03-31T04:02:33;93468.66;;;3.57;79.89
8294;BME280;4185;41.506;24.938;2023-03-31T04:05:03;93458.22;;;3.59;79.83
8294;BME280;4185;41.506;24.938;2023-03-31T04:07:30;93457.03;;;3.60;80.46
8294;BME280;4185;41.506;24.938;2023-03-31T04:09:57;93456.41;;;3.56;80.37
8294;BME280;4185;41.506;24.938;2023-03-31T04:12:23;93463.28;;;3.57;80.36
8294;BME280;4185;41.506;24.938;2023-03-31T04:14:50;93463.28;;;3.57;80.99
8294;BME280;4185;41.506;24.938;2023-03-31T04:17:17;93444.78;;;3.59;80.80
8294;BME280;4185;41.506;24.938;2023-03-31T04:19:58;93444.47;;;3.57;81.28
8294;BME280;4185;41.506;24.938;2023-03-31T04:22:26;93447.91;;;3.57;81.21
8294;BME280;4185;41.506;24.938;2023-03-31T04:24:59;93445.69;;;3.56;81.15
8294;BME280;4185;41.506;24.938;2023-03-31T04:27:26;93449.91;;;3.66;80.92
8294;BME280;4185;41.506;24.938;2023-03-31T04:29:53;93453.78;;;3.65;81.01
8294;BME280;4185;41.506;24.938;2023-03-31T04:32:20;93456.91;;;3.63;81.12
8294;BME280;4185;41.506;24.938;2023-03-31T04:34:47;93463.63;;;3.68;81.27
8294;BME280;4185;41.506;24.938;2023-03-31T04:37:16;93472.72;;;3.70;80.88
8294;BME280;4185;41.506;24.938;2023-03-31T04:39:43;93464.84;;;3.76;81.03
8294;BME280;4185;41.506;24.938;2023-03-31T04:42:14;93466.19;;;3.81;80.25
8294;BME280;4185;41.506;24.938;2023-03-31T04:44:41;93475.94;;;3.87;80.33
8294;BME280;4185;41.506;24.938;2023-03-31T04:47:08;93482.66;;;3.92;79.99
8294;BME280;4185;41.506;24.938;2023-03-31T04:49:35;93480.16;;;3.97;79.87
8294;BME280;4185;41.506;24.938;2023-03-31T04:52:02;93482.53;;;3.95;80.05
8294;BME280;4185;41.506;24.938;2023-03-31T04:54:30;93477.28;;;3.92;79.99
8294;BME280;4185;41.506;24.938;2023-03-31T04:56:57;93478.19;;;3.89;80.33
8294;BME280;4185;41.506;24.938;2023-03-31T04:59:23;93478.78;;;3.84;80.42
8294;BME280;4185;41.506;24.938;2023-03-31T05:01:50;93473.84;;;3.82;80.31
8294;BME280;4185;41.506;24.938;2023-03-31T05:04:17;93478.59;;;3.78;81.33
8294;BME280;4185;41.506;24.938;2023-03-31T05:06:44;93477.09;;;3.77;80.98
8294;BME280;4185;41.506;24.938;2023-03-31T05:09:11;93471.13;;;3.73;81.42
8294;BME280;4185;41.506;24.938;2023-03-31T05:11:39;93462.78;;;3.80;81.49
8294;BME280;4185;41.506;24.938;2023-03-31T05:14:05;93446.53;;;3.84;81.05
8294;BME280;4185;41.506;24.938;2023-03-31T05:16:32;93445.50;;;3.90;80.88
8294;BME280;4185;41.506;24.938;2023-03-31T05:19:00;93436.84;;;3.95;80.49
8294;BME280;4185;41.506;24.938;2023-03-31T05:21:27;93435.38;;;4.03;80.26
8294;BME280;4185;41.506;24.938;2023-03-31T05:23:55;93438.81;;;4.13;79.77
8294;BME280;4185;41.506;24.938;2023-03-31T05:26:22;93435.13;;;4.19;79.85
8294;BME280;4185;41.506;24.938;2023-03-31T05:28:51;93448.25;;;4.26;79.74
8294;BME280;4185;41.506;24.938;2023-03-31T05:31:18;93442.59;;;4.33;79.48
8294;BME280;4185;41.506;24.938;2023-03-31T05:33:45;93444.41;;;4.36;78.95
8294;BME280;4185;41.506;24.938;2023-03-31T05:36:14;93445.28;;;4.42;78.74
8294;BME280;4185;41.506;24.938;2023-03-31T05:38:41;93437.69;;;4.41;79.43
8294;BME280;4185;41.506;24.938;2023-03-31T05:41:09;93434.38;;;4.46;78.89
8294;BME280;4185;41.506;24.938;2023-03-31T05:43:37;93422.28;;;4.41;79.54
8294;BME280;4185;41.506;24.938;2023-03-31T05:46:06;93422.13;;;4.45;79.08
8294;BME280;4185;41.506;24.938;2023-03-31T05:48:33;93424.38;;;4.46;79.31
8294;BME280;4185;41.506;24.938;2023-03-31T05:51:00;93419.44;;;4.45;79.36
8294;BME280;4185;41.506;24.938;2023-03-31T05:53:27;93411.06;;;4.52;80.15
8294;BME280;4185;41.506;24.938;2023-03-31T05:55:57;93418.09;;;4.58;79.75
8294;BME280;4185;41.506;24.938;2023-03-31T05:58:25;93412.56;;;4.62;79.74
8294;BME280;4185;41.506;24.938;2023-03-31T06:01:00;93420.47;;;4.65;79.53
8294;BME280;4185;41.506;24.938;2023-03-31T06:03:28;93425.56;;;4.72;79.55
8294;BME280;4185;41.506;24.938;2023-03-31T06:05:55;93430.34;;;4.77;79.29
8294;BME280;4185;41.506;24.938;2023-03-31T06:08:22;93432.88;;;4.81;79.22
8294;BME280;4185;41.506;24.938;2023-03-31T06:10:49;93429.44;;;4.80;79.83
8294;BME280;4185;41.506;24.938;2023-03-31T06:13:16;93435.44;;;4.93;78.84
8294;BME280;4185;41.506;24.938;2023-03-31T06:15:51;93429.88;;;4.97;79.15
8294;BME280;4185;41.506;24.938;2023-03-31T06:18:18;93424.78;;;5.08;79.26
8294;BME280;4185;41.506;24.938;2023-03-31T06:20:46;93420.56;;;5.16;78.83
8294;BME280;4185;41.506;24.938;2023-03-31T06:23:12;93416.53;;;5.21;78.52
8294;BME280;4185;41.506;24.938;2023-03-31T06:25:40;93412.94;;;5.24;78.20
8294;BME280;4185;41.506;24.938;2023-03-31T06:28:06;93417.09;;;5.25;78.21
8294;BME280;4185;41.506;24.938;2023-03-31T06:30:33;93405.41;;;5.28;78.71
8294;BME280;4185;41.506;24.938;2023-03-31T06:33:01;93408.84;;;5.37;78.26
8294;BME280;4185;41.506;24.938;2023-03-31T06:35:27;93398.78;;;5.47;77.65
8294;BME280;4185;41.506;24.938;2023-03-31T06:37:56;93405.31;;;5.55;77.32
8294;BME280;4185;41.506;24.938;2023-03-31T06:40:23;93404.38;;;5.67;77.22
8294;BME280;4185;41.506;24.938;2023-03-31T06:42:50;93405.56;;;5.75;77.35
8294;BME280;4185;41.506;24.938;2023-03-31T06:45:17;93404.34;;;5.85;76.26
8294;BME280;4185;41.506;24.938;2023-03-31T06:47:43;93406.06;;;5.97;76.09
8294;BME280;4185;41.506;24.938;2023-03-31T06:50:10;93407.94;;;6.05;75.63
8294;BME280;4185;41.506;24.938;2023-03-31T06:52:37;93403.56;;;6.17;75.39
8294;BME280;4185;41.506;24.938;2023-03-31T06:55:07;93416.78;;;6.30;75.05
8294;BME280;4185;41.506;24.938;2023-03-31T06:57:34;93409.09;;;6.37;74.53
8294;BME280;4185;41.506;24.938;2023-03-31T07:00:02;93409.31;;;6.48;74.68
8294;BME280;4185;41.506;24.938;2023-03-31T07:02:30;93413.16;;;6.56;74.43
8294;BME280;4185;41.506;24.938;2023-03-31T07:04:57;93408.91;;;6.64;73.48
8294;BME280;4185;41.506;24.938;2023-03-31T07:07:24;93400.47;;;6.71;72.73
8294;BME280;4185;41.506;24.938;2023-03-31T07:09:51;93393.19;;;6.77;72.18
8294;BME280;4185;41.506;24.938;2023-03-31T07:12:19;93382.97;;;6.81;72.09
8294;BME280;4185;41.506;24.938;2023-03-31T07:14:46;93383.06;;;6.87;71.38
8294;BME280;4185;41.506;24.938;2023-03-31T07:17:13;93375.34;;;6.94;71.10
8294;BME280;4185;41.506;24.938;2023-03-31T07:19:39;93367.69;;;7.07;71.65
8294;BME280;4185;41.506;24.938;2023-03-31T07:22:06;93369.00;;;7.26;69.38
8294;BME280;4185;41.506;24.938;2023-03-31T07:24:33;93360.59;;;7.54;69.16
8294;BME280;4185;41.506;24.938;2023-03-31T07:27:00;93365.88;;;7.63;68.43
8294;BME280;4185;41.506;24.938;2023-03-31T07:29:28;93366.59;;;7.78;67.65
8294;BME280;4185;41.506;24.938;2023-03-31T07:31:55;93374.19;;;7.94;67.17
8294;BME280;4185;41.506;24.938;2023-03-31T07:34:22;93373.78;;;8.01;67.17
8294;BME280;4185;41.506;24.938;2023-03-31T07:36:49;93368.00;;;8.08;66.91
8294;BME280;4185;41.506;24.938;2023-03-31T07:39:17;93363.84;;;8.12;66.39
8294;BME280;4185;41.506;24.938;2023-03-31T07:41:44;93367.59;;;8.15;66.21
8294;BME280;4185;41.506;24.938;2023-03-31T07:44:10;93360.41;;;8.12;65.95
8294;BME280;4185;41.506;24.938;2023-03-31T07:46:39;93355.34;;;8.19;65.32
8294;BME280;4185;41.506;24.938;2023-03-31T07:49:06;93341.09;;;8.39;65.28
8294;BME280;4185;41.506;24.938;2023-03-31T07:51:34;93345.06;;;8.63;64.85
8294;BME280;4185;41.506;24.938;2023-03-31T07:54:00;93344.00;;;8.81;64.69
8294;BME280;4185;41.506;24.938;2023-03-31T07:56:27;93352.56;;;9.00;64.04
8294;BME280;4185;41.506;24.938;2023-03-31T07:58:54;93344.31;;;9.14;63.93
8294;BME280;4185;41.506;24.938;2023-03-31T08:01:21;93338.78;;;9.29;63.64
8294;BME280;4185;41.506;24.938;2023-03-31T08:03:51;93331.72;;;9.42;62.02
8294;BME280;4185;41.506;24.938;2023-03-31T08:06:19;93335.78;;;9.58;61.86
8294;BME280;4185;41.506;24.938;2023-03-31T08:08:47;93318.69;;;9.83;61.44
8294;BME280;4185;41.506;24.938;2023-03-31T08:11:14;93321.03;;;10.07;59.79
8294;BME280;4185;41.506;24.938;2023-03-31T08:13:41;93310.06;;;10.27;57.59
8294;BME280;4185;41.506;24.938;2023-03-31T08:16:07;93313.09;;;10.51;56.60
8294;BME280;4185;41.506;24.938;2023-03-31T08:18:34;93307.75;;;10.73;54.99
8294;BME280;4185;41.506;24.938;2023-03-31T08:21:03;93304.81;;;10.93;55.29
8294;BME280;4185;41.506;24.938;2023-03-31T08:23:30;93302.13;;;11.15;54.16
8294;BME280;4185;41.506;24.938;2023-03-31T08:26:07;93294.47;;;11.41;53.11
8294;BME280;4185;41.506;24.938;2023-03-31T08:28:34;93291.97;;;11.54;52.52
8294;BME280;4185;41.506;24.938;2023-03-31T08:31:03;93283.06;;;11.59;52.16
8294;BME280;4185;41.506;24.938;2023-03-31T08:33:33;93282.34;;;11.64;51.92
8294;BME280;4185;41.506;24.938;2023-03-31T08:36:06;93276.63;;;11.79;50.98
8294;BME280;4185;41.506;24.938;2023-03-31T08:38:34;93277.09;;;11.94;50.14
8294;BME280;4185;41.506;24.938;2023-03-31T08:41:05;93271.13;;;12.01;50.20
8294;BME280;4185;41.506;24.938;2023-03-31T08:43:36;93268.13;;;12.15;50.80
8294;BME280;4185;41.506;24.938;2023-03-31T08:46:05;93270.50;;;12.36;51.01
8294;BME280;4185;41.506;24.938;2023-03-31T08:48:36;93263.94;;;12.61;49.97
8294;BME280;4185;41.506;24.938;2023-03-31T08:51:14;93260.38;;;12.77;49.80
8294;BME280;4185;41.506;24.938;2023-03-31T08:53:47;93252.59;;;12.92;49.60
8294;BME280;4185;41.506;24.938;2023-03-31T08:56:16;93248.84;;;13.00;49.89
8294;BME280;4185;41.506;24.938;2023-03-31T08:58:46;93239.06;;;13.16;48.57
8294;BME280;4185;41.506;24.938;2023-03-31T09:01:22;93232.50;;;13.30;48.24
8294;BME280;4185;41.506;24.938;2023-03-31T09:04:05;93228.09;;;13.51;48.09
8294;BME280;4185;41.506;24.938;2023-03-31T09:06:40;93225.81;;;13.79;46.77
8294;BME280;4185;41.506;24.938;2023-03-31T09:09:10;93201.81;;;13.96;46.18
8294;BME280;4185;41.506;24.938;2023-03-31T09:11:47;93193.88;;;14.17;45.84
8294;BME280;4185;41.506;24.938;2023-03-31T09:14:23;93176.03;;;14.34;45.33
8294;BME280;4185;41.506;24.938;2023-03-31T09:17:00;93161.84;;;14.54;45.06
8294;BME280;4185;41.506;24.938;2023-03-31T09:19:38;93155.53;;;14.59;44.17
8294;BME280;4185;41.506;24.938;2023-03-31T09:22:13;93152.03;;;14.64;44.47
8294;BME280;4185;41.506;24.938;2023-03-31T09:24:48;93149.75;;;14.82;43.89
8294;BME280;4185;41.506;24.938;2023-03-31T09:27:18;93135.53;;;15.02;43.79
8294;BME280;4185;41.506;24.938;2023-03-31T09:29:48;93153.44;;;15.16;43.04
8294;BME280;4185;41.506;24.938;2023-03-31T09:32:19;93158.81;;;15.21;43.16
8294;BME280;4185;41.506;24.938;2023-03-31T09:34:49;93163.38;;;15.32;43.33
8294;BME280;4185;41.506;24.938;2023-03-31T09:37:18;93158.94;;;15.29;42.77
8294;BME280;4185;41.506;24.938;2023-03-31T09:39:45;93159.38;;;15.46;43.10
8294;BME280;4185;41.506;24.938;2023-03-31T09:42:13;93145.31;;;15.55;42.26
8294;BME280;4185;41.506;24.938;2023-03-31T09:44:42;93143.22;;;15.61;42.36
8294;BME280;4185;41.506;24.938;2023-03-31T09:47:14;93145.22;;;15.60;42.39
8294;BME280;4185;41.506;24.938;2023-03-31T09:49:44;93148.34;;;15.64;42.44
8294;BME280;4185;41.506;24.938;2023-03-31T09:52:14;93139.19;;;15.75;42.40
8294;BME280;4185;41.506;24.938;2023-03-31T09:54:49;93144.56;;;15.80;41.81
8294;BME280;4185;41.506;24.938;2023-03-31T09:57:24;93139.84;;;15.81;41.82
8294;BME280;4185;41.506;24.938;2023-03-31T09:59:52;93131.09;;;15.82;41.96
8294;BME280;4185;41.506;24.938;2023-03-31T10:02:37;93138.25;;;15.85;42.32
8294;BME280;4185;41.506;24.938;2023-03-31T10:05:06;93135.72;;;15.88;41.75
8294;BME280;4185;41.506;24.938;2023-03-31T10:07:44;93129.16;;;16.04;41.37
8294;BME280;4185;41.506;24.938;2023-03-31T10:10:25;93140.19;;;16.24;40.90
8294;BME280;4185;41.506;24.938;2023-03-31T10:12:54;93127.63;;;16.42;41.23
8294;BME280;4185;41.506;24.938;2023-03-31T10:15:25;93129.19;;;16.50;41.18
8294;BME280;4185;41.506;24.938;2023-03-31T10:17:53;93121.78;;;16.58;40.68
8294;BME280;4185;41.506;24.938;2023-03-31T10:20:30;93116.44;;;16.73;41.10
8294;BME280;4185;41.506;24.938;2023-03-31T10:23:02;93110.03;;;16.91;41.72
8294;BME280;4185;41.506;24.938;2023-03-31T10:25:32;93110.16;;;17.06;41.39
8294;BME280;4185;41.506;24.938;2023-03-31T10:28:00;93105.66;;;17.17;40.87
8294;BME280;4185;41.506;24.938;2023-03-31T10:30:32;93108.56;;;17.11;40.34
8294;BME280;4185;41.506;24.938;2023-03-31T10:33:05;93097.50;;;17.03;39.66
8294;BME280;4185;41.506;24.938;2023-03-31T10:35:34;93092.97;;;17.06;39.46
8294;BME280;4185;41.506;24.938;2023-03-31T10:38:04;93081.81;;;17.12;39.07
8294;BME280;4185;41.506;24.938;2023-03-31T10:40:34;93089.59;;;17.21;39.49
8294;BME280;4185;41.506;24.938;2023-03-31T10:43:08;93083.66;;;17.37;39.03
8294;BME280;4185;41.506;24.938;2023-03-31T10:45:42;93068.59;;;17.51;38.17
8294;BME280;4185;41.506;24.938;2023-03-31T10:48:18;93076.44;;;17.47;38.51
8294;BME280;4185;41.506;24.938;2023-03-31T10:50:46;93066.19;;;17.48;38.37
8294;BME280;4185;41.506;24.938;2023-03-31T10:53:15;93056.44;;;17.67;37.83
8294;BME280;4185;41.506;24.938;2023-03-31T10:55:56;93044.63;;;17.87;37.97
8294;BME280;4185;41.506;24.938;2023-03-31T10:58:36;93048.72;;;18.16;38.10
8294;BME280;4185;41.506;24.938;2023-03-31T11:01:17;93060.50;;;18.32;36.61
8294;BME280;4185;41.506;24.938;2023-03-31T11:04:00;93037.66;;;18.45;36.89
8294;BME280;4185;41.506;24.938;2023-03-31T11:06:38;93033.00;;;18.24;37.46
8294;BME280;4185;41.506;24.938;2023-03-31T11:09:18;93029.00;;;18.33;36.95
8294;BME280;4185;41.506;24.938;2023-03-31T11:11:57;93024.31;;;18.56;37.52
8294;BME280;4185;41.506;24.938;2023-03-31T11:14:37;93030.34;;;18.77;36.89
8294;BME280;4185;41.506;24.938;2023-03-31T11:17:18;93016.06;;;18.79;37.23
8294;BME280;4185;41.506;24.938;2023-03-31T11:19:55;93008.91;;;18.83;37.13
8294;BME280;4185;41.506;24.938;2023-03-31T11:22:30;93002.66;;;18.98;37.27
8294;BME280;4185;41.506;24.938;2023-03-31T11:25:11;92999.19;;;18.67;37.35
8294;BME280;4185;41.506;24.938;2023-03-31T11:27:54;93011.84;;;18.55;38.15
8294;BME280;4185;41.506;24.938;2023-03-31T11:30:27;93011.59;;;18.38;37.32
8294;BME280;4185;41.506;24.938;2023-03-31T11:33:13;93003.38;;;18.61;38.00
8294;BME280;4185;41.506;24.938;2023-03-31T11:35:57;92998.09;;;18.85;37.77
8294;BME280;4185;41.506;24.938;2023-03-31T11:38:40;92990.88;;;19.20;36.89
8294;BME280;4185;41.506;24.938;2023-03-31T11:41:13;92985.38;;;19.42;36.88
8294;BME280;4185;41.506;24.938;2023-03-31T11:43:46;92986.25;;;19.53;36.78
8294;BME280;4185;41.506;24.938;2023-03-31T11:46:16;92991.81;;;19.22;36.67
8294;BME280;4185;41.506;24.938;2023-03-31T11:48:50;92992.00;;;19.09;36.75
8294;BME280;4185;41.506;24.938;2023-03-31T11:51:25;92991.28;;;19.01;36.90
8294;BME280;4185;41.506;24.938;2023-03-31T11:53:56;92988.34;;;18.84;37.62
8294;BME280;4185;41.506;24.938;2023-03-31T11:56:32;92998.81;;;18.63;37.88
8294;BME280;4185;41.506;24.938;2023-03-31T11:59:03;92997.91;;;18.53;38.82
8294;BME280;4185;41.506;24.938;2023-03-31T12:01:37;92995.09;;;18.38;37.87
8294;BME280;4185;41.506;24.938;2023-03-31T12:04:15;92996.13;;;18.05;39.13
8294;BME280;4185;41.506;24.938;2023-03-31T12:06:48;92992.47;;;18.02;39.00
8294;BME280;4185;41.506;24.938;2023-03-31T12:09:22;92995.16;;;17.95;39.78
8294;BME280;4185;41.506;24.938;2023-03-31T12:11:56;92993.47;;;17.84;40.13
8294;BME280;4185;41.506;24.938;2023-03-31T12:14:31;92992.19;;;17.78;39.84
8294;BME280;4185;41.506;24.938;2023-03-31T12:17:04;92991.44;;;17.70;40.06
8294;BME280;4185;41.506;24.938;2023-03-31T12:19:41;92999.59;;;17.55;40.47
8294;BME280;4185;41.506;24.938;2023-03-31T12:22:13;92995.56;;;17.56;40.81
8294;BME280;4185;41.506;24.938;2023-03-31T12:24:42;92984.75;;;17.50;40.57
8294;BME280;4185;41.506;24.938;2023-03-31T12:27:13;92994.16;;;17.34;40.64
8294;BME280;4185;41.506;24.938;2023-03-31T12:29:45;92993.38;;;17.54;40.99
8294;BME280;4185;41.506;24.938;2023-03-31T12:32:17;93003.03;;;17.48;41.17
8294;BME280;4185;41.506;24.938;2023-03-31T12:34:50;93002.59;;;17.36;41.19
8294;BME280;4185;41.506;24.938;2023-03-31T12:40:17;93015.38;;;17.34;42.15
8294;BME280;4185;41.506;24.938;2023-03-31T12:42:54;93000.31;;;17.20;42.26
8294;BME280;4185;41.506;24.938;2023-03-31T12:45:28;93003.97;;;17.22;42.38
8294;BME280;4185;41.506;24.938;2023-03-31T12:48:17;93005.63;;;17.25;42.30
8294;BME280;4185;41.506;24.938;2023-03-31T12:50:59;93000.94;;;17.33;42.70
8294;BME280;4185;41.506;24.938;2023-03-31T12:53:34;93001.34;;;17.45;42.74
8294;BME280;4185;41.506;24.938;2023-03-31T12:56:05;93004.50;;;17.49;42.26
8294;BME280;4185;41.506;24.938;2023-03-31T12:58:45;92999.91;;;17.87;41.82
8294;BME280;4185;41.506;24.938;2023-03-31T13:01:15;93009.75;;;17.75;41.74
8294;BME280;4185;41.506;24.938;2023-03-31T13:03:54;93004.53;;;17.56;42.12
8294;BME280;4185;41.506;24.938;2023-03-31T13:06:51;93003.16;;;17.42;42.18
8294;BME280;4185;41.506;24.938;2023-03-31T13:09:38;93007.38;;;17.43;41.96
8294;BME280;4185;41.506;24.938;2023-03-31T13:12:06;93000.50;;;17.50;41.54
8294;BME280;4185;41.506;24.938;2023-03-31T13:14:36;92996.47;;;17.51;41.86
8294;BME280;4185;41.506;24.938;2023-03-31T13:17:22;92984.22;;;17.59;41.80
8294;BME280;4185;41.506;24.938;2023-03-31T13:19:50;92986.28;;;17.66;41.24
8294;BME280;4185;41.506;24.938;2023-03-31T13:22:29;92982.69;;;17.79;41.37
8294;BME280;4185;41.506;24.938;2023-03-31T13:28:17;92977.94;;;17.94;41.04
8294;BME280;4185;41.506;24.938;2023-03-31T13:30:52;92975.56;;;17.91;40.69
8294;BME280;4185;41.506;24.938;2023-03-31T13:33:24;92965.81;;;17.75;40.43
8294;BME280;4185;41.506;24.938;2023-03-31T13:36:03;92968.81;;;18.07;40.36
8294;BME280;4185;41.506;24.938;2023-03-31T13:38:44;92967.03;;;18.32;40.43
8294;BME280;4185;41.506;24.938;2023-03-31T13:41:22;92963.53;;;18.09;40.38
8294;BME280;4185;41.506;24.938;2023-03-31T13:49:57;92966.75;;;17.85;40.80
8294;BME280;4185;41.506;24.938;2023-03-31T13:52:37;92965.06;;;17.74;41.52
8294;BME280;4185;41.506;24.938;2023-03-31T13:55:21;92959.22;;;17.70;41.66
8294;BME280;4185;41.506;24.938;2023-03-31T13:58:13;92959.38;;;17.65;41.80